Spring Lake Heights, New Jersey
Current Conditions -  °F | °C
As of 3:15 AM on Sunday 26 Oct 2014 (Local Time) from KBLM Reporting Station
Overcast Overcast  
Wind Chill: 55°   Ceiling: 9000
Heat Index: 55°   Visibility: 10mi
Dew Point: 41°   Wind: 5mph
Humidity: 58%   Direction: 260°W
Pressure: 29.58"   Gusts: NA
Location:  40.1528°N, 74.0364°W
Report Text: KBLM 260715Z AUTO 26004KT 10SM OVC090 13/05 A2958 RMK AO1
Loading
Personal Weather Stations






























Interactive Weather Map New forecast layout! Learn more

10-Day Weather Forecast

Advertisements
Track Severe Weather on mobile